Time;durP1;ratioP1;P1;durP2;ratioP2;P2;SDS_P1;SDS_P2;PMS_P1;PMS_P2;Temp;Humidity;BMP_temperature;BMP_pressure;BME280_temperature;BME280_humidity;BME280_pressure;Samples;Min_cycle;Max_cycle;Signal;HPM_P1;HPM_P2
2022/05/12 00:00:29;;;;;;;4.93;1.83;;;;;;;11.80;100.00;101314.69;5315376;27;20038;-78
2022/05/12 00:03:02;;;;;;;5.30;1.48;;;;;;;11.70;100.00;101313.84;5294088;27;20073;-77
2022/05/12 00:05:33;;;;;;;4.78;1.60;;;;;;;11.68;100.00;101324.66;5317981;27;20064;-77
2022/05/12 00:08:05;;;;;;;10.93;2.67;;;;;;;11.47;100.00;101327.44;5317303;27;20155;-78
2022/05/12 00:10:37;;;;;;;5.40;1.63;;;;;;;11.39;100.00;101329.91;5312746;27;20414;-78
2022/05/12 00:13:09;;;;;;;8.48;1.75;;;;;;;11.28;100.00;101332.72;5316432;27;20040;-78
2022/05/12 00:15:40;;;;;;;4.57;1.60;;;;;;;11.24;100.00;101334.81;5316865;27;20024;-77
2022/05/12 00:18:12;;;;;;;6.47;1.80;;;;;;;11.15;100.00;101333.78;5318478;27;20051;-77
2022/05/12 00:20:43;;;;;;;3.83;1.88;;;;;;;11.06;100.00;101331.94;5313334;27;20035;-77
2022/05/12 00:23:24;;;;;;;6.93;2.60;;;;;;;10.99;100.00;101336.09;5315901;27;21393;-77
2022/05/12 00:25:56;;;;;;;4.75;1.65;;;;;;;10.88;100.00;101334.34;5317351;27;20043;-77
2022/05/12 00:28:27;;;;;;;4.43;1.80;;;;;;;10.69;100.00;101332.41;5291339;27;20504;-77
2022/05/12 00:30:58;;;;;;;5.72;1.90;;;;;;;10.56;100.00;101343.28;5319456;27;20031;-77
2022/05/12 00:33:30;;;;;;;9.20;2.47;;;;;;;10.56;100.00;101340.63;5318630;27;20119;-77
2022/05/12 00:36:01;;;;;;;5.10;1.90;;;;;;;10.47;100.00;101345.91;5318550;27;20128;-77
2022/05/12 00:38:33;;;;;;;6.50;2.40;;;;;;;10.48;100.00;101361.75;5320086;27;20430;-77
2022/05/12 00:41:04;;;;;;;5.30;1.83;;;;;;;10.29;100.00;101359.78;5314101;27;20060;-77
2022/05/12 00:43:50;;;;;;;2.97;1.70;;;;;;;10.15;100.00;101357.38;5314507;27;20063;-77
2022/05/12 00:46:25;;;;;;;7.23;2.03;;;;;;;10.05;100.00;101359.97;5313070;27;20042;-77
2022/05/12 00:49:01;;;;;;;5.53;2.00;;;;;;;10.05;100.00;101359.16;5293435;27;20247;-77
2022/05/12 00:52:01;;;;;;;6.07;2.17;;;;;;;10.13;100.00;101359.34;5309558;27;20032;-77
2022/05/12 00:54:45;;;;;;;8.32;2.10;;;;;;;9.94;100.00;101363.53;5293748;27;20073;-77
2022/05/12 00:57:24;;;;;;;5.22;1.98;;;;;;;9.93;100.00;101371.66;5314362;27;20032;-77
2022/05/12 00:59:57;;;;;;;4.65;2.20;;;;;;;9.82;100.00;101370.69;5310342;27;20028;-77
2022/05/12 01:02:32;;;;;;;9.18;2.80;;;;;;;9.67;100.00;101373.75;5316718;27;20111;-77
2022/05/12 01:05:05;;;;;;;6.53;2.60;;;;;;;9.67;100.00;101379.94;5293804;27;20543;-77
2022/05/12 01:07:36;;;;;;;6.32;2.10;;;;;;;9.63;100.00;101375.81;5337941;27;20059;-77
2022/05/12 01:10:09;;;;;;;4.22;1.83;;;;;;;9.70;100.00;101385.00;5336295;27;20103;-77
2022/05/12 01:12:44;;;;;;;4.65;1.83;;;;;;;9.97;100.00;101384.59;5332760;27;20393;-77
2022/05/12 01:15:17;;;;;;;5.90;2.60;;;;;;;10.14;100.00;101390.38;5336939;27;20031;-77
2022/05/12 01:17:48;;;;;;;5.10;1.98;;;;;;;10.09;100.00;101390.72;5332598;27;20133;-77
2022/05/12 01:20:20;;;;;;;5.93;2.10;;;;;;;9.93;100.00;101392.97;5337219;27;20071;-77
2022/05/12 01:22:56;;;;;;;11.30;3.25;;;;;;;9.92;100.00;101391.25;5333464;27;20035;-77
2022/05/12 01:25:29;;;;;;;7.72;2.13;;;;;;;9.90;100.00;101401.19;5336731;27;20064;-77
2022/05/12 01:28:00;;;;;;;12.25;3.10;;;;;;;9.62;100.00;101398.09;5335740;27;20039;-77
2022/05/12 01:30:32;;;;;;;7.82;2.63;;;;;;;9.86;100.00;101405.94;5334179;27;20020;-77
2022/05/12 01:33:04;;;;;;;9.32;2.60;;;;;;;9.56;100.00;101401.25;5337300;27;20421;-77
2022/05/12 01:35:36;;;;;;;11.77;2.80;;;;;;;9.69;100.00;101417.09;5336840;27;20026;-77
2022/05/12 01:38:07;;;;;;;8.85;2.90;;;;;;;9.59;100.00;101416.97;5333698;27;20028;-77
2022/05/12 01:40:38;;;;;;;16.15;3.60;;;;;;;9.78;100.00;101419.03;5339161;27;20038;-77
2022/05/12 01:43:15;;;;;;;11.10;3.25;;;;;;;9.86;100.00;101418.41;5333633;27;20407;-77
2022/05/12 01:45:46;;;;;;;10.07;3.13;;;;;;;9.79;100.00;101426.06;5335899;27;20461;-77
2022/05/12 01:48:18;;;;;;;9.82;2.90;;;;;;;9.66;100.00;101426.19;5338808;27;20070;-77
2022/05/12 01:50:49;;;;;;;15.10;3.20;;;;;;;9.51;100.00;101428.25;5338240;27;20023;-77
2022/05/12 01:53:21;;;;;;;12.05;3.45;;;;;;;9.65;100.00;101432.47;5336246;27;20309;-77
2022/05/12 01:55:52;;;;;;;12.48;4.10;;;;;;;9.38;100.00;101433.69;5330218;27;20016;-77
2022/05/12 01:58:23;;;;;;;6.82;3.10;;;;;;;9.30;100.00;101443.25;5340808;27;20031;-78
2022/05/12 02:00:54;;;;;;;11.73;3.33;;;;;;;9.49;100.00;101446.16;5342377;27;20031;-78
2022/05/12 02:03:26;;;;;;;14.20;3.78;;;;;;;9.39;100.00;101435.38;5337747;27;20035;-78
2022/05/12 02:05:57;;;;;;;11.98;3.53;;;;;;;9.18;100.00;101447.72;5339176;27;20051;-78
2022/05/12 02:08:29;;;;;;;8.85;2.75;;;;;;;9.52;100.00;101451.25;5343938;27;20031;-78
2022/05/12 02:11:00;;;;;;;8.80;2.65;;;;;;;9.66;100.00;101455.50;5341357;27;20072;-78
2022/05/12 02:13:32;;;;;;;18.77;4.07;;;;;;;9.53;100.00;101455.59;5343488;27;20038;-78
2022/05/12 02:16:03;;;;;;;8.05;3.67;;;;;;;9.64;100.00;101457.41;5342598;27;20042;-78
2022/05/12 02:18:34;;;;;;;10.90;3.60;;;;;;;9.76;100.00;101467.09;5339321;27;20089;-78
2022/05/12 02:21:06;;;;;;;7.85;3.55;;;;;;;9.81;100.00;101472.06;5343268;27;20498;-78
2022/05/12 02:23:37;;;;;;;12.20;3.83;;;;;;;9.70;100.00;101472.91;5341357;27;20062;-78
2022/05/12 02:26:08;;;;;;;14.00;3.83;;;;;;;9.64;100.00;101478.72;5334878;27;20121;-78
2022/05/12 02:28:40;;;;;;;12.65;3.20;;;;;;;9.86;100.00;101477.03;5341560;27;20028;-78
2022/05/12 02:31:11;;;;;;;11.65;3.28;;;;;;;9.79;100.00;101474.84;5340674;27;20043;-78
2022/05/12 02:33:43;;;;;;;8.98;3.25;;;;;;;9.64;100.00;101478.72;5341656;27;20032;-78
2022/05/12 02:36:14;;;;;;;14.38;4.68;;;;;;;9.54;100.00;101475.94;5338134;27;20023;-78
2022/05/12 02:38:46;;;;;;;10.38;4.05;;;;;;;9.54;100.00;101485.75;5340937;27;20040;-78
2022/05/12 02:41:17;;;;;;;9.57;3.75;;;;;;;9.53;100.00;101495.53;5334240;27;20110;-78
2022/05/12 02:43:49;;;;;;;13.77;4.03;;;;;;;9.59;100.00;101494.22;5328312;27;20038;-78
2022/05/12 02:46:20;;;;;;;11.88;3.95;;;;;;;9.68;100.00;101498.84;5343202;27;20394;-78
2022/05/12 02:48:52;;;;;;;10.25;3.50;;;;;;;9.44;100.00;101499.78;5332842;27;20027;-78
2022/05/12 02:51:23;;;;;;;9.20;3.55;;;;;;;9.61;100.00;101500.28;5337811;27;20032;-78
2022/05/12 02:53:54;;;;;;;12.05;3.55;;;;;;;9.69;100.00;101499.69;5338563;27;20289;-78
2022/05/12 02:56:26;;;;;;;13.23;4.18;;;;;;;9.39;100.00;101501.09;5330608;27;20015;-77
2022/05/12 02:58:57;;;;;;;13.00;4.72;;;;;;;9.43;100.00;101508.75;5345895;27;20027;-77
2022/05/12 03:01:28;;;;;;;12.88;4.13;;;;;;;9.31;100.00;101488.41;5334264;27;20463;-77
2022/05/12 03:04:00;;;;;;;13.07;3.83;;;;;;;9.33;100.00;101509.56;5336990;27;20060;-77
2022/05/12 03:06:31;;;;;;;13.13;4.47;;;;;;;9.35;100.00;101511.13;5313228;27;20056;-77
2022/05/12 03:09:03;;;;;;;13.40;5.22;;;;;;;9.34;100.00;101513.91;5322690;28;20411;-77
2022/05/12 03:11:35;;;;;;;12.52;4.43;;;;;;;9.44;100.00;101507.75;5310924;27;20021;-77
2022/05/12 03:14:06;;;;;;;10.50;4.50;;;;;;;9.29;100.00;101514.25;5317279;28;20118;-77
2022/05/12 03:16:37;;;;;;;11.70;4.82;;;;;;;9.05;100.00;101511.69;5306474;27;20376;-78
2022/05/12 03:19:10;;;;;;;17.40;6.30;;;;;;;9.14;100.00;101526.94;5319191;27;20028;-78
2022/05/12 03:21:41;;;;;;;14.25;6.70;;;;;;;9.16;100.00;101522.34;5315938;27;20039;-78
2022/05/12 03:24:17;;;;;;;19.45;7.07;;;;;;;9.20;100.00;101521.16;5320430;28;20392;-78
2022/05/12 03:26:49;;;;;;;16.67;6.60;;;;;;;9.09;100.00;101529.94;5312433;27;20083;-78
2022/05/12 03:29:20;;;;;;;20.70;8.70;;;;;;;9.07;100.00;101534.53;5321288;28;20154;-78
2022/05/12 03:31:51;;;;;;;20.05;6.88;;;;;;;9.05;100.00;101535.63;5293640;27;20062;-78
2022/05/12 03:34:23;;;;;;;20.15;8.15;;;;;;;8.95;100.00;101532.78;5316974;28;20047;-78
2022/05/12 03:36:54;;;;;;;18.65;8.05;;;;;;;8.95;100.00;101538.13;5295933;27;20374;-78
2022/05/12 03:39:25;;;;;;;23.45;8.88;;;;;;;8.95;100.00;101539.94;5316993;28;20387;-78
2022/05/12 03:41:57;;;;;;;23.85;9.25;;;;;;;8.99;100.00;101552.88;5313614;27;20072;-78
2022/05/12 03:44:46;;;;;;;29.40;10.52;;;;;;;8.99;100.00;101550.22;5298696;28;20119;-76
2022/05/12 03:47:26;;;;;;;21.65;10.18;;;;;;;8.95;100.00;101556.75;5315348;27;20066;-77
2022/05/12 03:50:04;;;;;;;26.13;10.23;;;;;;;8.98;100.00;101567.16;5314843;28;20024;-77
2022/05/12 03:52:36;;;;;;;22.30;11.52;;;;;;;9.06;100.00;101562.13;5319055;27;20117;-77
2022/05/12 03:55:11;;;;;;;23.70;11.32;;;;;;;8.85;100.00;101564.56;5319328;28;20040;-77
2022/05/12 03:57:44;;;;;;;31.25;11.95;;;;;;;9.00;100.00;101567.06;5317104;27;20023;-77
2022/05/12 04:00:20;;;;;;;26.77;12.65;;;;;;;9.01;100.00;101571.41;5316184;27;20093;-77
2022/05/12 04:02:52;;;;;;;29.73;13.93;;;;;;;8.99;100.00;101576.81;5313872;27;20549;-77
2022/05/12 04:05:24;;;;;;;33.58;14.02;;;;;;;8.92;100.00;101580.91;5306582;27;20302;-77
2022/05/12 04:07:55;;;;;;;32.95;14.23;;;;;;;8.95;100.00;101579.84;5342805;27;20020;-75
2022/05/12 04:10:27;;;;;;;30.70;14.77;;;;;;;9.09;100.00;101585.00;5339156;27;33415;-76
2022/05/12 04:12:58;;;;;;;32.10;14.95;;;;;;;9.07;100.00;101593.09;5341181;27;20458;-77
2022/05/12 04:15:30;;;;;;;34.25;15.75;;;;;;;8.99;100.00;101587.47;5339575;27;20031;-77
2022/05/12 04:18:05;;;;;;;34.00;16.88;;;;;;;9.07;100.00;101600.22;5339849;27;20038;-77
2022/05/12 04:20:37;;;;;;;41.88;17.85;;;;;;;9.11;100.00;101601.69;5337251;27;20063;-77
2022/05/12 04:23:09;;;;;;;37.35;15.23;;;;;;;9.09;100.00;101600.97;5339048;27;20114;-77
2022/05/12 04:25:40;;;;;;;37.88;17.50;;;;;;;9.15;100.00;101602.31;5338936;27;20507;-77
2022/05/12 04:28:12;;;;;;;44.72;19.85;;;;;;;9.18;100.00;101610.91;5335460;27;20019;-77
2022/05/12 04:30:43;;;;;;;43.90;20.75;;;;;;;9.30;100.00;101614.47;5337411;27;20070;-78
2022/05/12 04:36:04;;;;;;;41.42;19.10;;;;;;;9.18;100.00;101621.56;5338982;27;20043;-78
2022/05/12 04:38:36;;;;;;;43.92;21.08;;;;;;;9.37;100.00;101621.03;5345554;27;20080;-77
2022/05/12 04:41:08;;;;;;;45.53;20.55;;;;;;;9.40;100.00;101625.28;5345568;27;20384;-77
2022/05/12 04:43:39;;;;;;;37.40;19.92;;;;;;;9.44;100.00;101632.91;5345244;27;20023;-77
2022/05/12 04:46:11;;;;;;;36.28;16.42;;;;;;;9.48;100.00;101636.19;5340003;27;20047;-77
2022/05/12 04:48:43;;;;;;;37.00;18.95;;;;;;;9.48;100.00;101635.34;5333922;27;20060;-77
2022/05/12 04:51:14;;;;;;;39.78;20.35;;;;;;;9.45;100.00;101633.78;5336093;27;20372;-77
2022/05/12 04:53:46;;;;;;;41.42;20.88;;;;;;;9.56;100.00;101632.97;5337745;27;20419;-77
2022/05/12 04:56:17;;;;;;;44.72;20.30;;;;;;;9.67;100.00;101632.16;5338552;27;20034;-77
2022/05/12 04:58:48;;;;;;;53.17;22.67;;;;;;;9.73;100.00;101637.84;5336878;27;20084;-77
2022/05/12 05:01:20;;;;;;;45.63;22.08;;;;;;;9.83;100.00;101637.97;5335983;27;30591;-78
2022/05/12 05:03:51;;;;;;;43.28;22.08;;;;;;;9.99;100.00;101648.31;5334050;27;20027;-77
2022/05/12 05:06:22;;;;;;;42.03;20.15;;;;;;;10.12;100.00;101645.56;5340307;27;20123;-78
2022/05/12 05:08:54;;;;;;;40.70;22.08;;;;;;;10.20;100.00;101654.66;5335834;27;20035;-77
2022/05/12 05:11:26;;;;;;;41.78;22.10;;;;;;;10.35;100.00;101662.44;5328028;27;20412;-77
2022/05/12 05:13:57;;;;;;;42.22;21.38;;;;;;;10.48;100.00;101670.31;5345397;27;20051;-78
2022/05/12 05:16:29;;;;;;;44.92;24.35;;;;;;;10.58;100.00;101669.44;5338982;27;20072;-77
2022/05/12 05:19:01;;;;;;;46.53;23.63;;;;;;;10.73;100.00;101670.06;5333457;27;20023;-77
2022/05/12 05:21:32;;;;;;;42.83;22.33;;;;;;;10.93;100.00;101670.28;5347780;27;20019;-77
2022/05/12 05:24:03;;;;;;;32.10;17.30;;;;;;;11.20;100.00;101671.66;5336228;27;20028;-78
2022/05/12 05:26:35;;;;;;;43.50;22.83;;;;;;;11.15;100.00;101678.22;5344834;27;20518;-78
2022/05/12 05:29:07;;;;;;;37.35;19.05;;;;;;;11.45;100.00;101681.16;5343998;27;20069;-78
2022/05/12 05:31:38;;;;;;;30.60;18.90;;;;;;;11.76;100.00;101687.44;5344207;27;20501;-78
2022/05/12 05:34:09;;;;;;;31.75;19.35;;;;;;;11.85;100.00;101686.69;5339867;27;20020;-77
2022/05/12 05:36:44;;;;;;;28.27;17.13;;;;;;;12.20;100.00;101690.00;5332918;27;20041;-79
2022/05/12 05:39:24;;;;;;;34.63;19.58;;;;;;;12.37;100.00;101693.91;5336170;27;20077;-76
2022/05/12 05:42:02;;;;;;;31.05;18.77;;;;;;;12.41;100.00;101700.66;5337035;27;20028;-76
2022/05/12 05:44:33;;;;;;;31.38;17.85;;;;;;;12.56;100.00;101701.16;5335285;27;20020;-77
2022/05/12 05:47:05;;;;;;;28.42;18.38;;;;;;;12.75;100.00;101714.63;5341605;27;20514;-77
2022/05/12 05:49:37;;;;;;;32.05;18.25;;;;;;;12.89;100.00;101716.09;5342988;27;20115;-78
2022/05/12 05:54:59;;;;;;;27.55;17.65;;;;;;;13.29;100.00;101714.31;5342074;27;20436;-77
2022/05/12 05:57:31;;;;;;;27.52;17.27;;;;;;;13.53;100.00;101725.50;5342765;27;20034;-77
2022/05/12 06:00:06;;;;;;;28.98;18.35;;;;;;;13.59;100.00;101726.81;5346014;27;20020;-77
2022/05/12 06:02:38;;;;;;;31.58;18.25;;;;;;;13.63;100.00;101730.06;5342722;27;20130;-77
2022/05/12 06:05:10;;;;;;;28.77;17.73;;;;;;;13.92;100.00;101736.25;5341679;27;20496;-78
2022/05/12 06:07:41;;;;;;;23.98;17.83;;;;;;;13.82;100.00;101739.94;5327327;28;20028;-77
2022/05/12 06:10:13;;;;;;;27.98;17.33;;;;;;;14.20;100.00;101733.69;5326667;28;31799;-77
2022/05/12 06:12:45;;;;;;;23.88;16.73;;;;;;;14.43;100.00;101736.88;5326495;28;20104;-77
2022/05/12 06:15:16;;;;;;;30.38;16.00;;;;;;;14.61;100.00;101733.44;5308111;28;20059;-77
2022/05/12 06:17:48;;;;;;;26.05;17.20;;;;;;;14.80;100.00;101732.53;5326670;28;20095;-78
2022/05/12 06:20:20;;;;;;;26.75;16.20;;;;;;;15.11;100.00;101735.72;5326367;28;20043;-78
2022/05/12 06:22:52;;;;;;;23.90;16.75;;;;;;;15.25;100.00;101743.31;5325660;27;20036;-79
2022/05/12 06:25:23;;;;;;;24.25;16.33;;;;;;;15.04;100.00;101746.25;5310405;28;20037;-78
2022/05/12 06:27:54;;;;;;;30.05;17.08;;;;;;;15.21;100.00;101743.75;5313733;28;20023;-78
2022/05/12 06:30:28;;;;;;;22.13;16.02;;;;;;;15.50;100.00;101748.94;5295350;28;20028;-79
2022/05/12 06:33:01;;;;;;;24.20;15.75;;;;;;;15.54;100.00;101749.47;5305686;28;20089;-78
2022/05/12 06:35:32;;;;;;;22.75;16.65;;;;;;;15.35;100.00;101753.13;5301117;28;20032;-78
2022/05/12 06:38:04;;;;;;;27.98;15.95;;;;;;;15.36;100.00;101757.50;5307937;28;20393;-78
2022/05/12 06:40:35;;;;;;;25.13;17.02;;;;;;;15.46;100.00;101751.09;5326480;28;20028;-80
2022/05/12 06:43:08;;;;;;;23.83;16.23;;;;;;;15.51;100.00;101761.34;5326820;28;20095;-80
2022/05/12 06:45:40;;;;;;;19.48;16.42;;;;;;;15.74;100.00;101764.44;5307631;28;20174;-80
2022/05/12 06:48:12;;;;;;;21.60;15.00;;;;;;;15.68;100.00;101776.66;5326442;28;20024;-79
2022/05/12 06:50:43;;;;;;;21.60;16.30;;;;;;;15.94;100.00;101767.03;5307525;28;20081;-79
2022/05/12 06:53:15;;;;;;;19.55;14.80;;;;;;;16.97;100.00;101773.44;5307900;28;20443;-78
2022/05/12 06:55:46;;;;;;;18.13;14.13;;;;;;;17.00;100.00;101773.13;5307643;28;20024;-79
2022/05/12 06:58:18;;;;;;;20.20;14.52;;;;;;;17.43;100.00;101778.47;5326882;28;20054;-77
2022/05/12 07:00:49;;;;;;;20.23;13.00;;;;;;;17.77;100.00;101778.34;5325742;28;20119;-79
2022/05/12 07:03:20;;;;;;;17.98;12.30;;;;;;;17.99;100.00;101778.75;5324654;28;38976;-78
2022/05/12 07:05:52;;;;;;;18.27;12.23;;;;;;;18.46;100.00;101778.03;5327374;27;20050;-80
2022/05/12 07:08:25;;;;;;;17.10;11.10;;;;;;;18.66;100.00;101778.47;5329886;28;20028;-79
2022/05/12 07:10:58;;;;;;;16.52;11.43;;;;;;;18.70;100.00;101782.50;5329267;28;20031;-78
2022/05/12 07:13:29;;;;;;;16.67;11.40;;;;;;;18.80;100.00;101782.31;5307774;28;20044;-78
2022/05/12 07:16:02;;;;;;;18.85;13.23;;;;;;;18.80;100.00;101779.59;5307423;28;20059;-79
2022/05/12 07:18:35;;;;;;;18.00;12.23;;;;;;;20.02;100.00;101777.28;5316601;28;20017;-79
2022/05/12 07:26:47;;;;;;;17.17;11.95;;;;;;;20.08;100.00;101789.22;5325529;28;20028;-77
2022/05/12 07:29:23;;;;;;;19.10;11.65;;;;;;;19.31;100.00;101792.78;5326318;28;20039;-77
2022/05/12 07:31:55;;;;;;;34.07;12.00;;;;;;;18.49;100.00;101804.66;5325971;28;20020;-77
2022/05/12 07:34:26;;;;;;;19.83;11.20;;;;;;;19.12;100.00;101804.03;5325324;28;20281;-78
2022/05/12 07:36:57;;;;;;;29.63;12.20;;;;;;;20.05;100.00;101797.72;5324747;28;20024;-77
2022/05/12 07:39:31;;;;;;;20.35;11.20;;;;;;;20.83;100.00;101792.91;5325183;28;20043;-78
2022/05/12 07:42:04;;;;;;;14.93;8.45;;;;;;;20.95;100.00;101810.41;5307431;28;20062;-78
2022/05/12 07:44:35;;;;;;;11.50;6.35;;;;;;;21.64;99.73;101801.03;5325607;28;20091;-78
2022/05/12 07:47:13;;;;;;;15.25;8.20;;;;;;;22.14;97.79;101811.94;5325852;28;20181;-78
2022/05/12 07:49:44;;;;;;;15.18;8.00;;;;;;;22.92;89.64;101811.91;5316360;28;20056;-78
2022/05/12 07:52:16;;;;;;;13.03;7.70;;;;;;;23.35;80.21;101803.56;5301460;28;20056;-78
2022/05/12 07:54:47;;;;;;;11.45;8.60;;;;;;;23.69;75.24;101803.66;5304467;28;20267;-78
2022/05/12 07:57:21;;;;;;;13.02;8.38;;;;;;;24.44;70.54;101804.34;5304547;28;20476;-78
2022/05/12 07:59:52;;;;;;;13.82;7.05;;;;;;;24.34;62.25;101809.38;5304020;28;20029;-79
2022/05/12 08:02:24;;;;;;;10.50;7.70;;;;;;;23.79;64.79;101815.81;5304239;28;20055;-79
2022/05/12 08:04:56;;;;;;;17.88;7.55;;;;;;;25.48;57.99;101813.47;5303272;28;20043;-79
2022/05/12 08:07:29;;;;;;;21.05;7.45;;;;;;;26.04;51.19;101820.09;5322766;28;20039;-79
2022/05/12 08:10:01;;;;;;;11.65;5.00;;;;;;;25.30;49.18;101816.13;5324682;27;20452;-79
2022/05/12 08:12:32;;;;;;;15.43;7.13;;;;;;;24.57;52.81;101827.22;5324404;27;20024;-78
2022/05/12 08:15:05;;;;;;;16.10;6.97;;;;;;;25.27;50.95;101811.06;5341628;27;20034;-78
2022/05/12 08:17:37;;;;;;;11.80;7.03;;;;;;;25.34;48.83;101816.50;5346121;27;20275;-78
2022/05/12 08:20:13;;;;;;;9.70;6.05;;;;;;;25.07;49.25;101830.22;5346004;27;20519;-79
2022/05/12 08:22:44;;;;;;;;;;;;;;;26.03;50.86;101823.91;5346447;27;20161;-79
2022/05/12 08:25:16;;;;;;;11.70;6.33;;;;;;;24.88;48.64;101819.16;5329245;27;20451;-79
2022/05/12 08:27:47;;;;;;;10.93;6.88;;;;;;;24.99;48.13;101827.75;5324804;27;20277;-79
2022/05/12 08:30:19;;;;;;;12.15;6.22;;;;;;;22.99;49.70;101839.16;5343253;27;20096;-79
2022/05/12 08:32:50;;;;;;;9.48;4.63;;;;;;;23.28;52.21;101821.75;5345953;27;20034;-78
2022/05/12 08:35:22;;;;;;;11.10;4.87;;;;;;;24.50;49.07;101814.38;5344411;27;20074;-78
2022/05/12 08:37:53;;;;;;;12.80;5.07;;;;;;;25.82;45.51;101813.28;5343830;27;20273;-78
2022/05/12 08:40:30;;;;;;;10.40;4.75;;;;;;;26.13;43.71;101817.09;5345119;27;20024;-78
2022/05/12 08:43:13;;;;;;;11.38;4.25;;;;;;;27.72;41.23;101817.19;5344793;27;29639;-78
2022/05/12 08:45:46;;;;;;;10.80;3.80;;;;;;;27.16;38.93;101832.88;5345513;27;20032;-78
2022/05/12 08:48:17;;;;;;;10.63;4.43;;;;;;;25.87;38.68;101818.91;5344917;27;20391;-78
2022/05/12 08:50:53;;;;;;;7.70;3.30;;;;;;;25.22;39.86;101825.34;5345334;27;20103;-78
2022/05/12 08:53:29;;;;;;;8.93;3.00;;;;;;;26.51;37.01;101818.88;5343896;27;20110;-78
2022/05/12 08:56:00;;;;;;;5.68;2.53;;;;;;;27.92;34.57;101833.38;5323727;28;20020;-79
2022/05/12 08:58:35;;;;;;;5.20;2.08;;;;;;;27.48;33.83;101823.66;5323262;28;20026;-77
2022/05/12 09:01:19;;;;;;;5.97;2.50;;;;;;;26.95;33.45;101834.19;5323785;27;20016;-77
2022/05/12 09:03:50;;;;;;;5.80;2.55;;;;;;;26.13;35.89;101838.94;5324332;27;20020;-77
2022/05/12 09:06:38;;;;;;;6.27;2.57;;;;;;;26.11;37.72;101836.44;5334010;27;20040;-78
2022/05/12 09:09:24;;;;;;;7.60;4.50;;;;;;;24.88;40.03;101837.44;5306310;28;20032;-79
2022/05/12 09:11:59;;;;;;;;;;;;;;;26.46;40.04;101840.56;5320269;28;20085;-79
2022/05/12 09:14:43;;;;;;;8.10;4.07;;;;;;;26.55;38.26;101841.97;5323654;28;19938;-78
2022/05/12 09:17:22;;;;;;;7.38;4.32;;;;;;;28.55;35.28;101827.50;5324334;28;20040;-78
2022/05/12 09:19:54;;;;;;;8.98;4.32;;;;;;;29.24;33.23;101830.38;5302310;28;20445;-78
2022/05/12 09:22:29;;;;;;;7.03;4.03;;;;;;;29.83;30.84;101829.34;5316533;28;20023;-78
2022/05/12 09:25:00;;;;;;;9.43;4.07;;;;;;;28.19;32.19;101835.69;5311142;28;20108;-79
2022/05/12 09:27:35;;;;;;;7.33;3.73;;;;;;;27.96;33.86;101844.69;5302016;28;20436;-78
2022/05/12 09:30:11;;;;;;;6.32;3.80;;;;;;;28.50;32.34;101830.94;5302263;28;20239;-78
2022/05/12 09:32:42;;;;;;;7.30;3.38;;;;;;;26.78;32.11;101833.94;5298816;28;20029;-79
2022/05/12 09:35:27;;;;;;;6.47;4.05;;;;;;;24.92;36.86;101844.13;5301906;28;20032;-78
2022/05/12 09:38:22;;;;;;;12.65;4.53;;;;;;;24.55;39.90;101835.59;5324044;28;20040;-78
2022/05/12 09:40:55;;;;;;;5.20;3.42;;;;;;;26.96;34.77;101824.94;5324416;28;20653;-78
2022/05/12 09:43:32;;;;;;;9.95;2.88;;;;;;;27.90;32.64;101829.16;5324517;28;20032;-78
2022/05/12 09:46:19;;;;;;;7.55;3.58;;;;;;;28.52;31.92;101826.03;5323701;28;20043;-78
2022/05/12 09:48:50;;;;;;;7.85;4.15;;;;;;;28.70;30.68;101836.09;5322797;28;20020;-78
2022/05/12 09:51:24;;;;;;;9.82;4.20;;;;;;;28.90;31.03;101834.88;5323478;28;20024;-78
2022/05/12 09:54:23;;;;;;;8.35;3.33;;;;;;;31.01;30.86;101826.47;5305034;28;20024;-78
2022/05/12 09:57:15;;;;;;;10.43;3.15;;;;;;;28.31;28.52;101818.41;5323810;28;20425;-79
2022/05/12 09:59:56;;;;;;;8.27;3.47;;;;;;;27.86;31.04;101817.84;5324358;28;20510;-78
2022/05/12 10:08:25;;;;;;;5.68;1.60;;;;;;;31.11;26.22;101825.78;5313182;28;20025;-79
2022/05/12 10:11:03;;;;;;;5.65;1.60;;;;;;;29.81;26.21;101824.09;5307977;28;20028;-79
2022/05/12 10:13:44;;;;;;;4.90;1.65;;;;;;;26.63;28.81;101825.28;5327494;28;20103;-78
2022/05/12 10:16:20;;;;;;;6.93;2.33;;;;;;;24.31;33.15;101826.97;5327250;28;20100;-78
2022/05/12 10:18:56;;;;;;;7.53;2.90;;;;;;;23.86;35.48;101815.00;5326629;28;20040;-78
2022/05/12 10:21:37;;;;;;;6.20;2.83;;;;;;;23.80;36.49;101827.53;5326684;28;20519;-78
2022/05/12 10:24:39;;;;;;;7.00;3.38;;;;;;;23.55;38.10;101833.53;5326149;28;20094;-77
2022/05/12 10:27:15;;;;;;;9.48;3.38;;;;;;;23.99;37.55;101831.38;5327151;28;20538;-78
2022/05/12 10:30:02;;;;;;;3.75;2.45;;;;;;;24.07;37.46;101823.00;5325523;28;43036;-78
2022/05/12 10:32:46;;;;;;;9.10;3.22;;;;;;;23.89;37.16;101831.75;5326681;28;20027;-78
2022/05/12 10:35:26;;;;;;;8.27;3.30;;;;;;;24.23;37.91;101831.78;5326181;28;20477;-78
2022/05/12 10:38:35;;;;;;;6.65;2.83;;;;;;;26.57;34.65;101829.72;5326762;28;20107;-78
2022/05/12 10:41:19;;;;;;;4.22;2.05;;;;;;;29.58;29.42;101825.84;5286736;28;20074;-78
2022/05/12 10:44:21;;;;;;;7.28;2.70;;;;;;;28.77;28.89;101825.81;5323551;28;20029;-78
2022/05/12 10:47:06;;;;;;;9.80;2.10;;;;;;;27.16;30.41;101827.41;5326270;28;20302;-78
2022/05/12 10:49:49;;;;;;;6.63;2.42;;;;;;;27.23;31.55;101823.78;5306729;28;20031;-78
2022/05/12 10:52:44;;;;;;;7.40;2.38;;;;;;;27.09;31.21;101823.94;5326333;28;20078;-78
2022/05/12 10:55:30;;;;;;;4.47;2.42;;;;;;;26.67;31.42;101822.94;5326447;28;20463;-78
2022/05/12 10:58:41;;;;;;;6.50;2.03;;;;;;;24.50;32.01;101822.56;5325844;28;20020;-78
2022/05/12 11:01:29;;;;;;;4.80;2.40;;;;;;;24.42;33.53;101817.34;5283688;28;20044;-78
2022/05/12 11:04:14;;;;;;;8.27;3.33;;;;;;;23.42;36.11;101825.31;5326139;28;20024;-78
2022/05/12 11:06:52;;;;;;;10.82;3.45;;;;;;;24.00;36.49;101815.84;5326123;27;20044;-78
2022/05/12 11:09:38;;;;;;;6.82;2.88;;;;;;;25.86;33.54;101817.25;5326247;27;20032;-78
2022/05/12 11:12:21;;;;;;;5.28;2.60;;;;;;;26.96;31.33;101813.97;5313207;28;20028;-78
2022/05/12 11:15:00;;;;;;;6.50;2.22;;;;;;;25.01;32.54;101806.53;5304980;28;20025;-78
2022/05/12 11:17:41;;;;;;;13.85;2.45;;;;;;;25.12;32.83;101811.31;5304311;28;20040;-78
2022/05/12 11:20:25;;;;;;;7.63;2.42;;;;;;;25.74;32.44;101798.00;5303907;28;20044;-78
2022/05/12 11:23:08;;;;;;;17.92;3.05;;;;;;;25.01;33.17;101812.00;5286577;28;20453;-78
2022/05/12 11:25:59;;;;;;;15.27;3.50;;;;;;;26.61;31.00;101813.69;5303595;28;20102;-78
2022/05/12 11:31:55;;;;;;;6.40;2.63;;;;;;;29.10;28.72;101802.34;5289295;28;20044;-78
2022/05/12 11:34:28;;;;;;;9.15;2.20;;;;;;;28.46;27.05;101803.13;5317940;28;20099;-78
2022/05/12 11:37:25;;;;;;;5.30;1.98;;;;;;;29.98;26.82;101800.19;5326121;28;20079;-78
2022/05/12 11:40:00;;;;;;;5.45;2.05;;;;;;;28.93;26.74;101801.47;5307103;28;20016;-78
2022/05/12 11:45:34;;;;;;;36.67;6.63;;;;;;;27.26;28.57;101790.44;5293021;28;20032;-78
2022/05/12 11:48:06;;;;;;;13.77;2.40;;;;;;;26.23;28.95;101792.81;5325599;28;20530;-78
2022/05/12 11:50:37;;;;;;;8.82;1.95;;;;;;;25.02;30.85;101795.41;5306281;28;20024;-78
2022/05/12 11:53:17;;;;;;;9.65;2.15;;;;;;;23.89;32.32;101793.63;5326104;28;20016;-78
2022/05/12 11:56:03;;;;;;;6.28;1.98;;;;;;;24.07;32.51;101787.59;5307117;28;20119;-78
2022/05/12 11:58:48;;;;;;;16.55;3.10;;;;;;;23.48;33.73;101791.03;5324829;28;20077;-78
2022/05/12 12:01:20;;;;;;;5.68;1.50;;;;;;;23.35;33.36;101803.56;5324106;28;20133;-78
2022/05/12 12:03:54;;;;;;;10.82;2.20;;;;;;;23.88;33.06;101799.31;5325380;28;20110;-77
2022/05/12 12:06:42;;;;;;;9.77;2.35;;;;;;;24.02;33.89;101797.41;5325381;27;20075;-77
2022/05/12 12:09:38;;;;;;;5.35;1.48;;;;;;;24.57;32.64;101791.75;5304083;28;20025;-77
2022/05/12 12:12:31;;;;;;;3.45;1.60;;;;;;;25.43;31.22;101791.44;5311417;28;20072;-78
2022/05/12 12:15:03;;;;;;;3.70;1.65;;;;;;;26.99;29.73;101799.00;5322844;28;20024;-77